sensor_id;sensor_type;location;lat;lon;timestamp;P1;durP1;ratioP1;P2;durP2;ratioP2
6406;SDS011;3236;51.022;6.818;2023-06-10T00:02:22;14.63;;;9.57;;
6406;SDS011;3236;51.022;6.818;2023-06-10T00:04:50;10.05;;;9.00;;
6406;SDS011;3236;51.022;6.818;2023-06-10T00:07:17;12.38;;;10.30;;
6406;SDS011;3236;51.022;6.818;2023-06-10T00:09:44;14.18;;;10.20;;
6406;SDS011;3236;51.022;6.818;2023-06-10T00:12:11;12.13;;;10.15;;
6406;SDS011;3236;51.022;6.818;2023-06-10T00:14:39;11.50;;;9.63;;
6406;SDS011;3236;51.022;6.818;2023-06-10T00:17:07;13.20;;;10.93;;
6406;SDS011;3236;51.022;6.818;2023-06-10T00:19:39;13.80;;;9.73;;
6406;SDS011;3236;51.022;6.818;2023-06-10T00:22:07;12.30;;;10.35;;
6406;SDS011;3236;51.022;6.818;2023-06-10T00:24:35;12.23;;;10.32;;
6406;SDS011;3236;51.022;6.818;2023-06-10T00:27:03;13.98;;;10.32;;
6406;SDS011;3236;51.022;6.818;2023-06-10T00:29:33;13.35;;;10.55;;
6406;SDS011;3236;51.022;6.818;2023-06-10T00:32:01;13.60;;;11.05;;
6406;SDS011;3236;51.022;6.818;2023-06-10T00:34:29;11.52;;;10.38;;
6406;SDS011;3236;51.022;6.818;2023-06-10T00:36:58;13.25;;;10.48;;
6406;SDS011;3236;51.022;6.818;2023-06-10T00:39:25;12.77;;;10.40;;
6406;SDS011;3236;51.022;6.818;2023-06-10T00:41:53;18.58;;;11.35;;
6406;SDS011;3236;51.022;6.818;2023-06-10T00:44:23;13.77;;;10.73;;
6406;SDS011;3236;51.022;6.818;2023-06-10T00:46:50;15.60;;;10.98;;
6406;SDS011;3236;51.022;6.818;2023-06-10T00:49:20;16.20;;;11.45;;
6406;SDS011;3236;51.022;6.818;2023-06-10T00:51:47;16.85;;;10.25;;
6406;SDS011;3236;51.022;6.818;2023-06-10T00:54:21;13.43;;;10.93;;
6406;SDS011;3236;51.022;6.818;2023-06-10T00:56:49;13.38;;;10.73;;
6406;SDS011;3236;51.022;6.818;2023-06-10T00:59:16;14.23;;;10.63;;
6406;SDS011;3236;51.022;6.818;2023-06-10T01:01:43;13.18;;;11.77;;
6406;SDS011;3236;51.022;6.818;2023-06-10T01:04:12;13.57;;;10.90;;
6406;SDS011;3236;51.022;6.818;2023-06-10T01:06:41;14.38;;;11.15;;
6406;SDS011;3236;51.022;6.818;2023-06-10T01:09:25;19.70;;;12.30;;
6406;SDS011;3236;51.022;6.818;2023-06-10T01:12:01;13.70;;;11.40;;
6406;SDS011;3236;51.022;6.818;2023-06-10T01:14:37;15.00;;;11.38;;
6406;SDS011;3236;51.022;6.818;2023-06-10T01:17:13;13.57;;;10.98;;
6406;SDS011;3236;51.022;6.818;2023-06-10T01:19:41;13.15;;;11.73;;
6406;SDS011;3236;51.022;6.818;2023-06-10T01:22:11;12.23;;;10.77;;
6406;SDS011;3236;51.022;6.818;2023-06-10T01:24:41;20.33;;;10.73;;
6406;SDS011;3236;51.022;6.818;2023-06-10T01:27:09;14.18;;;11.88;;
6406;SDS011;3236;51.022;6.818;2023-06-10T01:32:11;13.55;;;11.63;;
6406;SDS011;3236;51.022;6.818;2023-06-10T01:34:44;17.10;;;11.48;;
6406;SDS011;3236;51.022;6.818;2023-06-10T01:37:13;13.23;;;10.98;;
6406;SDS011;3236;51.022;6.818;2023-06-10T01:39:44;15.05;;;11.77;;
6406;SDS011;3236;51.022;6.818;2023-06-10T01:42:12;12.30;;;10.95;;
6406;SDS011;3236;51.022;6.818;2023-06-10T01:44:40;13.93;;;11.43;;
6406;SDS011;3236;51.022;6.818;2023-06-10T01:47:07;16.75;;;11.90;;
6406;SDS011;3236;51.022;6.818;2023-06-10T01:49:34;15.23;;;11.07;;
6406;SDS011;3236;51.022;6.818;2023-06-10T01:52:02;15.90;;;12.25;;
6406;SDS011;3236;51.022;6.818;2023-06-10T01:54:31;14.07;;;12.02;;
6406;SDS011;3236;51.022;6.818;2023-06-10T01:56:59;14.20;;;11.35;;
6406;SDS011;3236;51.022;6.818;2023-06-10T01:59:27;17.90;;;12.02;;
6406;SDS011;3236;51.022;6.818;2023-06-10T02:01:54;16.27;;;11.98;;
6406;SDS011;3236;51.022;6.818;2023-06-10T02:04:21;14.57;;;12.40;;
6406;SDS011;3236;51.022;6.818;2023-06-10T02:06:48;16.52;;;12.85;;
6406;SDS011;3236;51.022;6.818;2023-06-10T02:09:15;16.38;;;12.70;;
6406;SDS011;3236;51.022;6.818;2023-06-10T02:11:45;14.32;;;12.77;;
6406;SDS011;3236;51.022;6.818;2023-06-10T02:14:12;17.67;;;13.65;;
6406;SDS011;3236;51.022;6.818;2023-06-10T02:16:39;18.80;;;13.57;;
6406;SDS011;3236;51.022;6.818;2023-06-10T02:19:06;14.98;;;12.52;;
6406;SDS011;3236;51.022;6.818;2023-06-10T02:21:33;14.43;;;12.25;;
6406;SDS011;3236;51.022;6.818;2023-06-10T02:24:00;18.35;;;14.27;;
6406;SDS011;3236;51.022;6.818;2023-06-10T02:26:28;15.32;;;12.85;;
6406;SDS011;3236;51.022;6.818;2023-06-10T02:28:56;17.40;;;13.00;;
6406;SDS011;3236;51.022;6.818;2023-06-10T02:31:23;21.80;;;13.23;;
6406;SDS011;3236;51.022;6.818;2023-06-10T02:33:51;17.92;;;13.07;;
6406;SDS011;3236;51.022;6.818;2023-06-10T02:36:18;18.23;;;13.32;;
6406;SDS011;3236;51.022;6.818;2023-06-10T02:38:46;16.00;;;12.70;;
6406;SDS011;3236;51.022;6.818;2023-06-10T02:41:13;18.48;;;13.55;;
6406;SDS011;3236;51.022;6.818;2023-06-10T02:43:41;15.77;;;13.10;;
6406;SDS011;3236;51.022;6.818;2023-06-10T02:46:09;17.58;;;13.32;;
6406;SDS011;3236;51.022;6.818;2023-06-10T02:48:40;17.05;;;14.63;;
6406;SDS011;3236;51.022;6.818;2023-06-10T02:51:09;21.75;;;13.82;;
6406;SDS011;3236;51.022;6.818;2023-06-10T02:53:39;19.95;;;13.32;;
6406;SDS011;3236;51.022;6.818;2023-06-10T02:56:06;18.00;;;12.35;;
6406;SDS011;3236;51.022;6.818;2023-06-10T02:58:33;16.23;;;12.75;;
6406;SDS011;3236;51.022;6.818;2023-06-10T03:01:00;16.77;;;12.93;;
6406;SDS011;3236;51.022;6.818;2023-06-10T03:03:29;15.68;;;12.80;;
6406;SDS011;3236;51.022;6.818;2023-06-10T03:05:58;20.52;;;14.32;;
6406;SDS011;3236;51.022;6.818;2023-06-10T03:08:25;16.05;;;13.10;;
6406;SDS011;3236;51.022;6.818;2023-06-10T03:10:52;17.15;;;13.50;;
6406;SDS011;3236;51.022;6.818;2023-06-10T03:13:19;16.35;;;12.77;;
6406;SDS011;3236;51.022;6.818;2023-06-10T03:15:47;19.63;;;13.52;;
6406;SDS011;3236;51.022;6.818;2023-06-10T03:18:14;20.77;;;12.90;;
6406;SDS011;3236;51.022;6.818;2023-06-10T03:20:44;15.85;;;13.20;;
6406;SDS011;3236;51.022;6.818;2023-06-10T03:23:11;17.52;;;13.80;;
6406;SDS011;3236;51.022;6.818;2023-06-10T03:25:42;16.52;;;13.52;;
6406;SDS011;3236;51.022;6.818;2023-06-10T03:28:09;16.45;;;13.45;;
6406;SDS011;3236;51.022;6.818;2023-06-10T03:30:36;19.30;;;13.88;;
6406;SDS011;3236;51.022;6.818;2023-06-10T03:33:03;22.15;;;14.05;;
6406;SDS011;3236;51.022;6.818;2023-06-10T03:35:30;19.10;;;14.13;;
6406;SDS011;3236;51.022;6.818;2023-06-10T03:38:01;18.67;;;13.93;;
6406;SDS011;3236;51.022;6.818;2023-06-10T03:40:28;17.30;;;14.98;;
6406;SDS011;3236;51.022;6.818;2023-06-10T03:42:56;17.98;;;13.75;;
6406;SDS011;3236;51.022;6.818;2023-06-10T03:45:23;21.30;;;14.95;;
6406;SDS011;3236;51.022;6.818;2023-06-10T03:47:53;22.58;;;13.65;;
6406;SDS011;3236;51.022;6.818;2023-06-10T03:50:20;19.55;;;13.68;;
6406;SDS011;3236;51.022;6.818;2023-06-10T03:52:49;19.10;;;14.32;;
6406;SDS011;3236;51.022;6.818;2023-06-10T03:55:18;19.70;;;15.13;;
6406;SDS011;3236;51.022;6.818;2023-06-10T03:57:47;19.58;;;14.75;;
6406;SDS011;3236;51.022;6.818;2023-06-10T04:00:14;18.17;;;14.43;;
6406;SDS011;3236;51.022;6.818;2023-06-10T04:02:43;19.98;;;13.75;;
6406;SDS011;3236;51.022;6.818;2023-06-10T04:05:12;15.98;;;13.13;;
6406;SDS011;3236;51.022;6.818;2023-06-10T04:07:40;16.90;;;13.35;;
6406;SDS011;3236;51.022;6.818;2023-06-10T04:10:10;18.25;;;14.30;;
6406;SDS011;3236;51.022;6.818;2023-06-10T04:12:39;18.45;;;14.00;;
6406;SDS011;3236;51.022;6.818;2023-06-10T04:15:09;20.88;;;14.18;;
6406;SDS011;3236;51.022;6.818;2023-06-10T04:17:38;23.13;;;14.48;;
6406;SDS011;3236;51.022;6.818;2023-06-10T04:20:06;21.00;;;13.80;;
6406;SDS011;3236;51.022;6.818;2023-06-10T04:22:35;14.88;;;13.10;;
6406;SDS011;3236;51.022;6.818;2023-06-10T04:25:04;19.80;;;13.77;;
6406;SDS011;3236;51.022;6.818;2023-06-10T04:27:34;20.42;;;13.35;;
6406;SDS011;3236;51.022;6.818;2023-06-10T04:30:05;18.70;;;13.55;;
6406;SDS011;3236;51.022;6.818;2023-06-10T04:32:33;19.02;;;12.75;;
6406;SDS011;3236;51.022;6.818;2023-06-10T04:35:06;16.92;;;13.93;;
6406;SDS011;3236;51.022;6.818;2023-06-10T04:37:34;19.00;;;13.75;;
6406;SDS011;3236;51.022;6.818;2023-06-10T04:40:02;16.35;;;13.05;;
6406;SDS011;3236;51.022;6.818;2023-06-10T04:42:30;20.35;;;13.60;;
6406;SDS011;3236;51.022;6.818;2023-06-10T04:44:58;17.48;;;13.38;;
6406;SDS011;3236;51.022;6.818;2023-06-10T04:47:26;16.73;;;13.10;;
6406;SDS011;3236;51.022;6.818;2023-06-10T04:49:53;18.80;;;12.85;;
6406;SDS011;3236;51.022;6.818;2023-06-10T04:52:20;20.85;;;13.95;;
6406;SDS011;3236;51.022;6.818;2023-06-10T04:54:47;15.90;;;12.43;;
6406;SDS011;3236;51.022;6.818;2023-06-10T04:57:15;16.08;;;12.60;;
6406;SDS011;3236;51.022;6.818;2023-06-10T04:59:42;18.80;;;13.05;;
6406;SDS011;3236;51.022;6.818;2023-06-10T05:02:09;15.57;;;12.57;;
6406;SDS011;3236;51.022;6.818;2023-06-10T05:04:38;16.45;;;12.23;;
6406;SDS011;3236;51.022;6.818;2023-06-10T05:07:06;16.95;;;13.43;;
6406;SDS011;3236;51.022;6.818;2023-06-10T05:09:33;18.98;;;12.48;;
6406;SDS011;3236;51.022;6.818;2023-06-10T05:12:01;18.65;;;12.43;;
6406;SDS011;3236;51.022;6.818;2023-06-10T05:14:28;15.13;;;12.43;;
6406;SDS011;3236;51.022;6.818;2023-06-10T05:16:56;17.08;;;12.82;;
6406;SDS011;3236;51.022;6.818;2023-06-10T05:19:23;16.23;;;12.85;;
6406;SDS011;3236;51.022;6.818;2023-06-10T05:21:54;17.38;;;12.27;;
6406;SDS011;3236;51.022;6.818;2023-06-10T05:24:21;19.10;;;12.10;;
6406;SDS011;3236;51.022;6.818;2023-06-10T05:26:48;20.38;;;12.40;;
6406;SDS011;3236;51.022;6.818;2023-06-10T05:29:15;15.90;;;12.40;;
6406;SDS011;3236;51.022;6.818;2023-06-10T05:31:42;15.95;;;11.07;;
6406;SDS011;3236;51.022;6.818;2023-06-10T05:34:09;14.48;;;11.95;;
6406;SDS011;3236;51.022;6.818;2023-06-10T05:36:36;12.65;;;10.25;;
6406;SDS011;3236;51.022;6.818;2023-06-10T05:39:05;15.05;;;10.95;;
6406;SDS011;3236;51.022;6.818;2023-06-10T05:41:32;17.05;;;11.70;;
6406;SDS011;3236;51.022;6.818;2023-06-10T05:43:59;17.45;;;11.50;;
6406;SDS011;3236;51.022;6.818;2023-06-10T05:46:29;17.05;;;11.88;;
6406;SDS011;3236;51.022;6.818;2023-06-10T05:48:56;12.45;;;10.45;;
6406;SDS011;3236;51.022;6.818;2023-06-10T05:51:23;14.63;;;10.75;;
6406;SDS011;3236;51.022;6.818;2023-06-10T05:53:50;14.00;;;9.65;;
6406;SDS011;3236;51.022;6.818;2023-06-10T05:56:19;12.52;;;9.68;;
6406;SDS011;3236;51.022;6.818;2023-06-10T05:58:50;12.10;;;9.18;;
6406;SDS011;3236;51.022;6.818;2023-06-10T06:01:18;11.63;;;9.80;;
6406;SDS011;3236;51.022;6.818;2023-06-10T06:03:45;10.43;;;9.27;;
6406;SDS011;3236;51.022;6.818;2023-06-10T06:06:13;9.70;;;8.25;;
6406;SDS011;3236;51.022;6.818;2023-06-10T06:08:40;11.05;;;8.63;;
6406;SDS011;3236;51.022;6.818;2023-06-10T06:11:07;17.40;;;9.07;;
6406;SDS011;3236;51.022;6.818;2023-06-10T06:13:36;9.57;;;8.05;;
6406;SDS011;3236;51.022;6.818;2023-06-10T06:16:04;10.85;;;8.05;;
6406;SDS011;3236;51.022;6.818;2023-06-10T06:18:34;12.13;;;8.57;;
6406;SDS011;3236;51.022;6.818;2023-06-10T06:21:07;9.88;;;7.50;;
6406;SDS011;3236;51.022;6.818;2023-06-10T06:23:34;13.35;;;8.00;;
6406;SDS011;3236;51.022;6.818;2023-06-10T06:26:01;8.70;;;7.68;;
6406;SDS011;3236;51.022;6.818;2023-06-10T06:28:29;10.45;;;6.97;;
6406;SDS011;3236;51.022;6.818;2023-06-10T06:30:58;10.70;;;8.23;;
6406;SDS011;3236;51.022;6.818;2023-06-10T06:33:25;12.05;;;9.20;;
6406;SDS011;3236;51.022;6.818;2023-06-10T06:35:54;9.40;;;7.70;;
6406;SDS011;3236;51.022;6.818;2023-06-10T06:38:24;10.27;;;7.95;;
6406;SDS011;3236;51.022;6.818;2023-06-10T06:40:54;15.23;;;7.75;;
6406;SDS011;3236;51.022;6.818;2023-06-10T06:43:21;11.57;;;8.27;;
6406;SDS011;3236;51.022;6.818;2023-06-10T06:46:05;9.07;;;8.05;;
6406;SDS011;3236;51.022;6.818;2023-06-10T06:48:33;9.23;;;7.45;;
6406;SDS011;3236;51.022;6.818;2023-06-10T06:51:00;9.43;;;7.68;;
6406;SDS011;3236;51.022;6.818;2023-06-10T06:53:28;9.82;;;7.53;;
6406;SDS011;3236;51.022;6.818;2023-06-10T06:55:55;13.32;;;7.43;;
6406;SDS011;3236;51.022;6.818;2023-06-10T06:58:22;15.38;;;7.95;;
6406;SDS011;3236;51.022;6.818;2023-06-10T07:00:50;8.95;;;7.57;;
6406;SDS011;3236;51.022;6.818;2023-06-10T07:03:18;13.20;;;7.35;;
6406;SDS011;3236;51.022;6.818;2023-06-10T07:05:45;13.70;;;8.60;;
6406;SDS011;3236;51.022;6.818;2023-06-10T07:08:13;10.77;;;7.75;;
6406;SDS011;3236;51.022;6.818;2023-06-10T07:10:40;9.77;;;7.68;;
6406;SDS011;3236;51.022;6.818;2023-06-10T07:13:07;9.02;;;7.32;;
6406;SDS011;3236;51.022;6.818;2023-06-10T07:15:35;12.15;;;7.03;;
6406;SDS011;3236;51.022;6.818;2023-06-10T07:18:02;10.70;;;7.45;;
6406;SDS011;3236;51.022;6.818;2023-06-10T07:20:31;11.25;;;7.05;;
6406;SDS011;3236;51.022;6.818;2023-06-10T07:23:00;10.02;;;8.05;;
6406;SDS011;3236;51.022;6.818;2023-06-10T07:25:28;9.98;;;7.13;;
6406;SDS011;3236;51.022;6.818;2023-06-10T07:27:55;8.65;;;6.88;;
6406;SDS011;3236;51.022;6.818;2023-06-10T07:30:25;9.80;;;6.95;;
6406;SDS011;3236;51.022;6.818;2023-06-10T07:32:52;12.85;;;6.90;;
6406;SDS011;3236;51.022;6.818;2023-06-10T07:35:28;8.52;;;6.80;;
6406;SDS011;3236;51.022;6.818;2023-06-10T07:37:56;7.55;;;6.45;;
6406;SDS011;3236;51.022;6.818;2023-06-10T07:40:27;11.48;;;6.45;;
6406;SDS011;3236;51.022;6.818;2023-06-10T07:42:54;10.07;;;5.88;;
6406;SDS011;3236;51.022;6.818;2023-06-10T07:45:22;7.35;;;5.75;;
6406;SDS011;3236;51.022;6.818;2023-06-10T07:47:50;12.23;;;6.50;;
6406;SDS011;3236;51.022;6.818;2023-06-10T07:50:17;8.00;;;5.90;;
6406;SDS011;3236;51.022;6.818;2023-06-10T07:52:45;12.52;;;6.57;;
6406;SDS011;3236;51.022;6.818;2023-06-10T07:55:13;6.63;;;5.70;;
6406;SDS011;3236;51.022;6.818;2023-06-10T07:57:40;9.10;;;6.43;;
6406;SDS011;3236;51.022;6.818;2023-06-10T08:00:08;12.00;;;6.93;;
6406;SDS011;3236;51.022;6.818;2023-06-10T08:02:35;9.07;;;6.45;;
6406;SDS011;3236;51.022;6.818;2023-06-10T08:05:03;10.77;;;6.68;;
6406;SDS011;3236;51.022;6.818;2023-06-10T08:07:31;8.90;;;7.03;;
6406;SDS011;3236;51.022;6.818;2023-06-10T08:09:58;10.15;;;7.00;;
6406;SDS011;3236;51.022;6.818;2023-06-10T08:12:29;10.63;;;7.10;;
6406;SDS011;3236;51.022;6.818;2023-06-10T08:17:23;10.32;;;6.70;;
6406;SDS011;3236;51.022;6.818;2023-06-10T08:19:50;7.90;;;6.28;;
6406;SDS011;3236;51.022;6.818;2023-06-10T08:22:18;10.32;;;6.85;;
6406;SDS011;3236;51.022;6.818;2023-06-10T08:24:45;11.02;;;6.43;;
6406;SDS011;3236;51.022;6.818;2023-06-10T08:27:13;7.93;;;6.35;;
6406;SDS011;3236;51.022;6.818;2023-06-10T08:29:41;9.50;;;7.05;;
6406;SDS011;3236;51.022;6.818;2023-06-10T08:32:08;10.07;;;7.05;;
6406;SDS011;3236;51.022;6.818;2023-06-10T08:34:36;8.13;;;6.93;;
6406;SDS011;3236;51.022;6.818;2023-06-10T08:37:04;11.90;;;6.97;;
6406;SDS011;3236;51.022;6.818;2023-06-10T08:39:31;11.75;;;7.45;;
6406;SDS011;3236;51.022;6.818;2023-06-10T08:42:04;13.15;;;6.78;;
6406;SDS011;3236;51.022;6.818;2023-06-10T08:44:37;7.15;;;6.38;;
6406;SDS011;3236;51.022;6.818;2023-06-10T08:47:08;13.55;;;7.03;;
6406;SDS011;3236;51.022;6.818;2023-06-10T08:49:41;9.15;;;6.60;;
6406;SDS011;3236;51.022;6.818;2023-06-10T08:52:10;7.73;;;6.87;;
6406;SDS011;3236;51.022;6.818;2023-06-10T08:54:45;10.40;;;7.00;;
6406;SDS011;3236;51.022;6.818;2023-06-10T08:57:21;8.00;;;6.65;;
6406;SDS011;3236;51.022;6.818;2023-06-10T08:59:48;11.30;;;7.17;;
6406;SDS011;3236;51.022;6.818;2023-06-10T09:02:17;8.80;;;6.78;;
6406;SDS011;3236;51.022;6.818;2023-06-10T09:04:46;8.45;;;6.65;;
6406;SDS011;3236;51.022;6.818;2023-06-10T09:07:17;7.78;;;6.88;;
6406;SDS011;3236;51.022;6.818;2023-06-10T09:09:44;13.50;;;7.50;;
6406;SDS011;3236;51.022;6.818;2023-06-10T09:12:13;10.82;;;7.35;;
6406;SDS011;3236;51.022;6.818;2023-06-10T09:14:41;8.38;;;6.70;;
6406;SDS011;3236;51.022;6.818;2023-06-10T09:17:09;9.68;;;6.57;;
6406;SDS011;3236;51.022;6.818;2023-06-10T09:19:38;10.25;;;6.90;;
6406;SDS011;3236;51.022;6.818;2023-06-10T09:22:08;10.77;;;7.18;;
6406;SDS011;3236;51.022;6.818;2023-06-10T09:24:35;11.52;;;7.10;;
6406;SDS011;3236;51.022;6.818;2023-06-10T09:27:03;15.98;;;6.90;;
6406;SDS011;3236;51.022;6.818;2023-06-10T09:29:31;9.05;;;7.63;;
6406;SDS011;3236;51.022;6.818;2023-06-10T09:32:12;9.38;;;7.03;;
6406;SDS011;3236;51.022;6.818;2023-06-10T09:34:40;10.20;;;7.78;;
6406;SDS011;3236;51.022;6.818;2023-06-10T09:37:08;9.98;;;8.43;;
6406;SDS011;3236;51.022;6.818;2023-06-10T09:39:37;10.63;;;7.55;;
6406;SDS011;3236;51.022;6.818;2023-06-10T09:42:10;10.43;;;7.00;;
6406;SDS011;3236;51.022;6.818;2023-06-10T09:44:49;11.40;;;7.07;;
6406;SDS011;3236;51.022;6.818;2023-06-10T09:47:19;9.88;;;6.43;;
6406;SDS011;3236;51.022;6.818;2023-06-10T09:49:49;11.83;;;7.03;;
6406;SDS011;3236;51.022;6.818;2023-06-10T09:52:21;10.88;;;7.53;;
6406;SDS011;3236;51.022;6.818;2023-06-10T09:57:17;10.52;;;6.63;;
6406;SDS011;3236;51.022;6.818;2023-06-10T09:59:45;16.00;;;6.63;;
6406;SDS011;3236;51.022;6.818;2023-06-10T10:02:15;10.48;;;7.15;;
6406;SDS011;3236;51.022;6.818;2023-06-10T10:04:45;10.20;;;6.85;;
6406;SDS011;3236;51.022;6.818;2023-06-10T10:07:14;7.65;;;6.53;;
6406;SDS011;3236;51.022;6.818;2023-06-10T10:09:44;9.88;;;7.00;;
6406;SDS011;3236;51.022;6.818;2023-06-10T10:12:16;11.18;;;7.22;;
6406;SDS011;3236;51.022;6.818;2023-06-10T10:14:45;9.93;;;7.40;;
6406;SDS011;3236;51.022;6.818;2023-06-10T10:17:18;8.98;;;6.85;;
6406;SDS011;3236;51.022;6.818;2023-06-10T10:19:50;8.80;;;6.80;;
6406;SDS011;3236;51.022;6.818;2023-06-10T10:22:31;7.82;;;6.82;;
6406;SDS011;3236;51.022;6.818;2023-06-10T10:25:05;9.10;;;7.03;;
6406;SDS011;3236;51.022;6.818;2023-06-10T10:27:40;11.30;;;6.85;;
6406;SDS011;3236;51.022;6.818;2023-06-10T10:30:12;9.63;;;6.97;;
6406;SDS011;3236;51.022;6.818;2023-06-10T10:32:45;8.02;;;7.03;;
6406;SDS011;3236;51.022;6.818;2023-06-10T10:35:22;9.80;;;7.40;;
6406;SDS011;3236;51.022;6.818;2023-06-10T10:37:53;7.80;;;7.00;;
6406;SDS011;3236;51.022;6.818;2023-06-10T10:40:21;11.13;;;6.85;;
6406;SDS011;3236;51.022;6.818;2023-06-10T10:42:51;8.15;;;7.15;;
6406;SDS011;3236;51.022;6.818;2023-06-10T10:45:19;8.80;;;6.97;;
6406;SDS011;3236;51.022;6.818;2023-06-10T10:47:52;8.93;;;6.97;;
6406;SDS011;3236;51.022;6.818;2023-06-10T10:50:22;8.05;;;6.95;;
6406;SDS011;3236;51.022;6.818;2023-06-10T10:52:54;9.68;;;6.40;;
6406;SDS011;3236;51.022;6.818;2023-06-10T10:55:22;8.48;;;6.82;;
6406;SDS011;3236;51.022;6.818;2023-06-10T10:57:53;8.27;;;7.25;;
6406;SDS011;3236;51.022;6.818;2023-06-10T11:00:28;9.80;;;7.10;;
6406;SDS011;3236;51.022;6.818;2023-06-10T11:03:04;11.63;;;7.53;;
6406;SDS011;3236;51.022;6.818;2023-06-10T11:05:37;8.43;;;6.70;;
6406;SDS011;3236;51.022;6.818;2023-06-10T11:08:08;7.38;;;6.65;;
6406;SDS011;3236;51.022;6.818;2023-06-10T11:10:36;9.75;;;7.05;;
6406;SDS011;3236;51.022;6.818;2023-06-10T11:13:08;8.18;;;6.70;;
6406;SDS011;3236;51.022;6.818;2023-06-10T11:15:39;9.40;;;7.25;;
6406;SDS011;3236;51.022;6.818;2023-06-10T11:18:13;15.35;;;7.47;;
6406;SDS011;3236;51.022;6.818;2023-06-10T11:20:52;11.63;;;6.75;;
6406;SDS011;3236;51.022;6.818;2023-06-10T11:29:18;12.02;;;6.88;;
6406;SDS011;3236;51.022;6.818;2023-06-10T11:31:48;12.15;;;7.28;;
6406;SDS011;3236;51.022;6.818;2023-06-10T11:37:03;9.48;;;7.70;;
6406;SDS011;3236;51.022;6.818;2023-06-10T11:39:38;11.43;;;6.80;;
6406;SDS011;3236;51.022;6.818;2023-06-10T11:42:10;8.63;;;7.47;;
6406;SDS011;3236;51.022;6.818;2023-06-10T11:44:37;7.88;;;7.07;;
6406;SDS011;3236;51.022;6.818;2023-06-10T11:47:05;7.57;;;6.75;;
6406;SDS011;3236;51.022;6.818;2023-06-10T11:49:32;12.57;;;7.03;;
6406;SDS011;3236;51.022;6.818;2023-06-10T11:51:59;8.25;;;6.68;;
6406;SDS011;3236;51.022;6.818;2023-06-10T11:54:26;15.40;;;8.48;;
6406;SDS011;3236;51.022;6.818;2023-06-10T11:56:58;8.50;;;7.65;;
6406;SDS011;3236;51.022;6.818;2023-06-10T11:59:27;8.52;;;6.70;;
6406;SDS011;3236;51.022;6.818;2023-06-10T12:01:55;9.07;;;6.93;;
6406;SDS011;3236;51.022;6.818;2023-06-10T12:04:25;7.68;;;6.88;;
6406;SDS011;3236;51.022;6.818;2023-06-10T12:06:53;10.43;;;7.18;;
6406;SDS011;3236;51.022;6.818;2023-06-10T12:09:22;6.90;;;6.10;;
6406;SDS011;3236;51.022;6.818;2023-06-10T12:11:51;10.13;;;6.75;;
6406;SDS011;3236;51.022;6.818;2023-06-10T12:17:22;10.27;;;7.07;;
6406;SDS011;3236;51.022;6.818;2023-06-10T12:19:51;8.85;;;7.05;;
6406;SDS011;3236;51.022;6.818;2023-06-10T12:22:20;10.13;;;7.07;;
6406;SDS011;3236;51.022;6.818;2023-06-10T12:25:03;10.32;;;7.68;;
6406;SDS011;3236;51.022;6.818;2023-06-10T12:27:32;10.52;;;6.32;;
6406;SDS011;3236;51.022;6.818;2023-06-10T12:30:05;7.90;;;6.80;;
6406;SDS011;3236;51.022;6.818;2023-06-10T12:32:37;8.40;;;6.50;;
6406;SDS011;3236;51.022;6.818;2023-06-10T12:35:06;13.48;;;6.55;;
6406;SDS011;3236;51.022;6.818;2023-06-10T12:37:35;9.02;;;6.30;;
6406;SDS011;3236;51.022;6.818;2023-06-10T12:40:04;6.75;;;5.90;;
6406;SDS011;3236;51.022;6.818;2023-06-10T12:42:35;7.35;;;5.85;;
6406;SDS011;3236;51.022;6.818;2023-06-10T12:45:05;8.32;;;6.32;;
6406;SDS011;3236;51.022;6.818;2023-06-10T12:47:36;7.22;;;6.43;;
6406;SDS011;3236;51.022;6.818;2023-06-10T12:50:05;6.57;;;5.40;;
6406;SDS011;3236;51.022;6.818;2023-06-10T12:52:34;9.02;;;6.10;;
6406;SDS011;3236;51.022;6.818;2023-06-10T12:55:01;8.90;;;5.88;;
6406;SDS011;3236;51.022;6.818;2023-06-10T12:57:29;7.97;;;5.22;;
6406;SDS011;3236;51.022;6.818;2023-06-10T12:59:57;6.13;;;5.53;;
6406;SDS011;3236;51.022;6.818;2023-06-10T13:02:30;7.95;;;6.18;;
6406;SDS011;3236;51.022;6.818;2023-06-10T13:04:58;7.78;;;6.00;;
6406;SDS011;3236;51.022;6.818;2023-06-10T13:07:27;9.13;;;5.30;;
6406;SDS011;3236;51.022;6.818;2023-06-10T13:09:56;10.70;;;5.40;;
6406;SDS011;3236;51.022;6.818;2023-06-10T13:12:25;6.93;;;5.57;;
6406;SDS011;3236;51.022;6.818;2023-06-10T13:14:54;6.72;;;5.70;;
6406;SDS011;3236;51.022;6.818;2023-06-10T13:17:22;7.40;;;6.32;;
6406;SDS011;3236;51.022;6.818;2023-06-10T13:19:53;7.15;;;5.88;;
6406;SDS011;3236;51.022;6.818;2023-06-10T13:22:20;8.35;;;6.18;;
6406;SDS011;3236;51.022;6.818;2023-06-10T13:24:49;8.52;;;5.63;;
6406;SDS011;3236;51.022;6.818;2023-06-10T13:27:16;8.63;;;6.35;;
6406;SDS011;3236;51.022;6.818;2023-06-10T13:29:47;8.30;;;6.35;;
6406;SDS011;3236;51.022;6.818;2023-06-10T13:32:21;6.47;;;5.43;;
6406;SDS011;3236;51.022;6.818;2023-06-10T13:34:59;7.00;;;5.93;;
6406;SDS011;3236;51.022;6.818;2023-06-10T13:37:27;8.43;;;5.82;;
6406;SDS011;3236;51.022;6.818;2023-06-10T13:39:54;7.88;;;5.90;;
6406;SDS011;3236;51.022;6.818;2023-06-10T13:42:22;8.13;;;6.55;;
6406;SDS011;3236;51.022;6.818;2023-06-10T13:44:51;7.13;;;5.90;;
6406;SDS011;3236;51.022;6.818;2023-06-10T13:47:19;8.27;;;5.70;;
6406;SDS011;3236;51.022;6.818;2023-06-10T13:49:47;6.57;;;5.22;;
6406;SDS011;3236;51.022;6.818;2023-06-10T13:52:17;8.02;;;5.45;;
6406;SDS011;3236;51.022;6.818;2023-06-10T13:54:45;7.60;;;5.93;;
6406;SDS011;3236;51.022;6.818;2023-06-10T13:57:15;10.02;;;6.10;;
6406;SDS011;3236;51.022;6.818;2023-06-10T13:59:42;6.65;;;5.95;;
6406;SDS011;3236;51.022;6.818;2023-06-10T14:02:10;8.80;;;5.57;;
6406;SDS011;3236;51.022;6.818;2023-06-10T14:04:37;7.93;;;5.63;;
6406;SDS011;3236;51.022;6.818;2023-06-10T14:07:05;7.35;;;4.85;;
6406;SDS011;3236;51.022;6.818;2023-06-10T14:09:34;6.63;;;5.60;;
6406;SDS011;3236;51.022;6.818;2023-06-10T14:12:01;5.00;;;4.57;;
6406;SDS011;3236;51.022;6.818;2023-06-10T14:14:30;5.10;;;4.60;;
6406;SDS011;3236;51.022;6.818;2023-06-10T14:16:58;6.93;;;5.07;;
6406;SDS011;3236;51.022;6.818;2023-06-10T14:19:25;4.95;;;4.50;;
6406;SDS011;3236;51.022;6.818;2023-06-10T14:21:53;8.45;;;4.70;;
6406;SDS011;3236;51.022;6.818;2023-06-10T14:24:21;5.70;;;4.63;;
6406;SDS011;3236;51.022;6.818;2023-06-10T14:26:50;9.20;;;5.00;;
6406;SDS011;3236;51.022;6.818;2023-06-10T14:29:19;5.60;;;4.88;;
6406;SDS011;3236;51.022;6.818;2023-06-10T14:31:47;6.68;;;4.57;;
6406;SDS011;3236;51.022;6.818;2023-06-10T14:34:14;10.15;;;5.35;;
6406;SDS011;3236;51.022;6.818;2023-06-10T14:36:41;10.38;;;4.85;;
6406;SDS011;3236;51.022;6.818;2023-06-10T14:39:09;12.02;;;5.45;;
6406;SDS011;3236;51.022;6.818;2023-06-10T14:41:37;6.57;;;4.78;;
6406;SDS011;3236;51.022;6.818;2023-06-10T14:44:06;5.13;;;4.47;;
6406;SDS011;3236;51.022;6.818;2023-06-10T14:46:33;7.22;;;5.10;;
6406;SDS011;3236;51.022;6.818;2023-06-10T14:49:04;6.18;;;5.03;;
6406;SDS011;3236;51.022;6.818;2023-06-10T14:51:32;6.22;;;5.22;;
6406;SDS011;3236;51.022;6.818;2023-06-10T14:54:00;5.10;;;4.60;;
6406;SDS011;3236;51.022;6.818;2023-06-10T14:56:29;7.35;;;4.57;;
6406;SDS011;3236;51.022;6.818;2023-06-10T14:58:57;10.60;;;4.95;;
6406;SDS011;3236;51.022;6.818;2023-06-10T15:01:26;5.85;;;4.75;;
6406;SDS011;3236;51.022;6.818;2023-06-10T15:03:53;6.43;;;5.25;;
6406;SDS011;3236;51.022;6.818;2023-06-10T15:06:24;5.75;;;4.88;;
6406;SDS011;3236;51.022;6.818;2023-06-10T15:08:51;7.60;;;5.05;;
6406;SDS011;3236;51.022;6.818;2023-06-10T15:11:20;6.20;;;4.88;;
6406;SDS011;3236;51.022;6.818;2023-06-10T15:13:51;6.80;;;5.22;;
6406;SDS011;3236;51.022;6.818;2023-06-10T15:16:19;9.88;;;5.25;;
6406;SDS011;3236;51.022;6.818;2023-06-10T15:18:50;8.65;;;4.93;;
6406;SDS011;3236;51.022;6.818;2023-06-10T15:21:19;7.97;;;4.95;;
6406;SDS011;3236;51.022;6.818;2023-06-10T15:23:55;8.48;;;5.35;;
6406;SDS011;3236;51.022;6.818;2023-06-10T15:26:28;8.20;;;5.60;;
6406;SDS011;3236;51.022;6.818;2023-06-10T15:29:01;7.50;;;5.30;;
6406;SDS011;3236;51.022;6.818;2023-06-10T15:31:29;9.02;;;5.70;;
6406;SDS011;3236;51.022;6.818;2023-06-10T15:33:59;7.10;;;4.30;;